x

8452944 - Conimicut Light, Ri (cptr1) Weather Station

1:54 - Fri 25th Jul 2014 All times are EDT. -4 hours from GMT.

  • Wind
    6mph, 8mph gusts
  • Sea Temp 77°f
  • Aire Temp 77°f
  • Sea Pressure 1014.1mb
  • 8452944 - Conimicut Light, Ri
  • 8452944 - Conimicut Light, Ri

More Historic Weather Station data

Upgrade to MSW Pro to gain access to the past 30 days of data for over 8000 Wavebouys and Weather Stations around the globe.

Join Pro

Comparision Forecast

View Surf forecast
   
vie 07/25 1:54 6 8 mph 1014.1mb 77f 77f
1:48 3 7 mph 1014.1mb 77f 78f
1:42 5 7 mph 1014.1mb 77f 76f
1:36 6 10 mph 1014.1mb 77f 76f
1:30 6 8 mph 1014.2mb 77f 77f
1:24 9 10 mph 1014.3mb 77f 76f
1:18 5 7 mph 1014.3mb 77f 75f
1:12 6 8 mph 1014.3mb 77f 75f
1:06 6 8 mph 1014.4mb 77f 75f
1:00 7 8 mph 1014.5mb 77f 74f
12:54 3 5 mph 1014.5mb 77f 75f
12:48 6 9 mph 1014.5mb 77f 76f
12:42 6 8 mph 1014.5mb 77f 74f
12:36 5 8 mph 1014.6mb 76f 75f
12:30 6 9 mph 1014.5mb 76f 76f
12:24 8 14 mph 1014.5mb 76f 75f
12:18 6 9 mph 1014.6mb 76f 73f
12:12 7 10 mph 1014.6mb 76f 74f
12:06 9 13 mph 1014.7mb 76f 75f
12:00 8 13 mph 1014.8mb 76f 73f
11:54 10 13 mph 1014.7mb 76f 73f
11:48 7 13 mph 1014.8mb 76f 73f
11:42 6 8 mph 1014.8mb 76f 73f
11:36 7 9 mph 1014.7mb 76f 73f
11:30 8 10 mph 1014.8mb 76f 73f
11:24 7 10 mph 1014.9mb 76f 72f
11:18 8 10 mph 1014.9mb 76f 71f
11:12 7 8 mph 1015mb 76f 71f
11:06 9 13 mph 1015.1mb 76f 71f
11:00 8 10 mph 1015.1mb 76f 71f
10:54 7 10 mph 1015.1mb 76f 71f
10:48 8 10 mph 1015.2mb 76f 71f
10:42 8 10 mph 1015.2mb 76f 71f
10:36 9 11 mph 1015.3mb 76f 70f
10:30 8 9 mph 1015.3mb 76f 70f
10:24 9 11 mph 1015.3mb 76f 70f
10:18 9 11 mph 1015.4mb 76f 70f
10:12 7 13 mph 1015.4mb 76f 71f
10:06 8 10 mph 1015.3mb 76f 70f
10:00 7 9 mph 1015.2mb 76f 69f
9:54 7 9 mph 1015mb 76f 71f
9:48 5 9 mph 1015mb 76f 70f
9:42 9 10 mph 1014.9mb 76f 70f
9:36 7 10 mph 1014.9mb 76f 70f
9:30 9 10 mph 1014.9mb 76f 70f
9:24 9 11 mph 1014.9mb 76f 70f
9:18 7 13 mph 1014.9mb 76f 69f
9:12 7 10 mph 1014.9mb 76f 69f
9:06 10 11 mph 1014.8mb 76f 68f
9:00 10 14 mph 1014.7mb 76f 68f
8:54 10 13 mph 1014.7mb 76f 67f
8:48 10 13 mph 1014.6mb 76f 67f
8:42 10 13 mph 1014.5mb 76f 66f
8:36 11 14 mph 1014.6mb 76f 66f
8:30 10 13 mph 1014.5mb 76f 67f
8:24 9 11 mph 1014.5mb 76f 66f
8:18 8 10 mph 1014.4mb 76f 67f
8:12 8 10 mph 1014.3mb 76f 67f
8:06 8 11 mph 1014.3mb 76f 67f
8:00 10 13 mph 1014.3mb 76f 67f
7:54 11 13 mph 1014.2mb 76f 67f
7:48 11 14 mph 1014.3mb 75f 67f
7:42 13 14 mph 1014.3mb 75f 67f
7:36 10 14 mph 1014.2mb 75f 66f
7:30 13 15 mph 1014.3mb 75f 66f
7:24 14 16 mph 1014.3mb 75f 66f
7:18 15 17 mph 1014.3mb 74f 66f
7:12 15 20 mph 1014.3mb 74f 66f
7:06 16 20 mph 1014.1mb 74f 66f
7:00 17 20 mph 1014mb 74f 66f
6:54 15 18 mph 1014mb 74f 66f
6:48 16 20 mph 1014mb 74f 66f
6:42 14 16 mph 1013.8mb 74f 66f
6:36 15 18 mph 1013.8mb 74f 66f
6:30 15 17 mph 1013.7mb 74f 65f
6:24 15 16 mph 1013.7mb 74f 65f
6:18 14 16 mph 1013.7mb 74f 66f
6:12 16 18 mph 1013.7mb 74f 66f
6:06 16 18 mph 1013.6mb 74f 66f
6:00 17 20 mph 1013.5mb 75f 67f
5:54 11 14 mph 1013.6mb 75f 67f
5:48 11 13 mph 1013.6mb 75f 67f
5:42 10 11 mph 1013.6mb 75f 67f
5:36 10 11 mph 1013.5mb 76f 67f
5:30 10 14 mph 1013.5mb 76f 67f
5:24 13 14 mph 1013.4mb 76f 67f
5:18 13 14 mph 1013.3mb 76f 67f
5:12 11 14 mph 1013.3mb 76f 68f
5:06 14 16 mph 1013.2mb 77f 68f
5:00 16 20 mph 1013.2mb 77f 68f
4:54 16 18 mph 1013.1mb 77f 68f
4:48 14 15 mph 1013.2mb 77f 68f
4:42 11 14 mph 1013.1mb 77f 68f
4:36 11 16 mph 1013.1mb 77f 68f
4:30 13 15 mph 1013mb 77f 68f
4:24 13 15 mph 1013mb 77f 68f
4:18 9 13 mph 1013.1mb 77f 68f
4:12 9 11 mph 1013.1mb 77f 68f
4:06 8 11 mph 1013mb 77f 68f
4:00 9 11 mph 1012.9mb 77f 68f
3:54 10 13 mph 1012.9mb 77f 69f
3:48 10 14 mph 1012.7mb 77f 69f
3:42 9 11 mph 1012.7mb 77f 68f
3:36 9 11 mph 1012.7mb 77f 68f
3:30 8 11 mph 1012.7mb 77f 69f
3:24 8 13 mph 1012.7mb 77f 69f
3:18 11 16 mph 1012.6mb 77f 69f
3:12 15 16 mph 1012.5mb 77f 69f
3:06 13 15 mph 1012.6mb 77f 70f
3:00 10 14 mph 1012.5mb 77f 70f
2:54 13 15 mph 1012.4mb 77f 70f
2:48 10 13 mph 1012.5mb 77f 69f
2:42 7 8 mph 1012.5mb 77f 69f
2:36 6 8 mph 1012.4mb 77f 69f
2:30 5 7 mph 1012.4mb 77f 69f
2:24 6 7 mph 1012.5mb 77f 69f
2:18 6 8 mph 1012.4mb 77f 69f
2:12 7 8 mph 1012.3mb 77f 69f
2:06 6 7 mph 1012.4mb 77f 69f
2:00 5 6 mph 1012.5mb 77f 69f
1:54 6
mph
1012.5mb 77f 69f
1:48 3
mph
1012.6mb 78f 70f
1:42 2
mph
1012.5mb 78f 70f
1:36 2 5 mph 1012.4mb 78f 69f
1:30 2 3 mph 1012.4mb 78f 69f
1:24  -  3 mph 1012.3mb 78f 69f
1:18 2 3 mph 1012.2mb 78f 69f
1:12 3 6 mph 1012.2mb 78f 69f
1:06 5 6 mph 1012.1mb 78f 69f
1:00 6 7 mph 1012.1mb 78f 69f
12:54 6 7 mph 1012.1mb 78f 70f
12:48 6 7 mph 1012.2mb 78f 70f
12:42 6
mph
1012.2mb 78f 70f
12:36 5 6 mph 1012.1mb 78f 70f
12:30 5 6 mph 1012.2mb 78f 70f
12:24 6
mph
1012.2mb 78f 70f
12:18 6 7 mph 1012.1mb 78f 70f
12:12 6
mph
1012.2mb 78f 70f
12:06 6
mph
1012.3mb 77f 70f
12:00 6 7 mph 1012.3mb 77f 70f
jue 07/24 11:54 6 7 mph 1012.2mb 77f 70f
11:48 6
mph
1012.1mb 77f 70f
11:42 5 6 mph 1012.1mb 77f 70f
11:36 6 7 mph 1012.1mb 77f 70f
11:30 6 7 mph 1012mb 77f 70f
11:24 6 7 mph 1012mb 78f 70f
11:18 5 6 mph 1012.2mb 78f 71f
11:12 6 7 mph 1012.1mb 78f 71f
11:06 6 7 mph 1011.9mb 78f 71f
11:00 6 7 mph 1012mb 77f 71f
10:54 5 6 mph 1011.9mb 77f 71f
10:48 3 5 mph 1012.1mb 77f 71f
10:42 5 6 mph 1012mb 77f 71f
10:36 5 7 mph 1012mb 77f 71f
10:30 6 7 mph 1011.9mb 77f 71f
10:24 5 6 mph 1011.8mb 77f 71f
10:18 5
mph
1011.9mb 77f 71f
10:12 5
mph
1011.9mb 77f 71f
10:06 5 6 mph 1011.8mb 77f 71f
10:00 3 5 mph 1011.7mb 77f 71f
9:54 3 5 mph 1011.7mb 77f 71f
9:48 2 5 mph 1011.6mb 77f 71f
9:42 5 6 mph 1011.4mb 77f 71f
9:36 6
mph
1011.3mb 77f 71f
9:30 5
mph
1011.4mb 77f 71f
9:24 5 6 mph 1011.4mb 77f 72f
9:18 6
mph
1011.3mb 77f 72f
9:12 6 7 mph 1011.2mb 77f 72f
9:06 5 6 mph 1011.2mb 77f 72f
9:00 5 6 mph 1011.1mb 77f 72f
8:54 3 5 mph 1011mb 77f 72f
8:48 2 5 mph 1011.1mb 77f 72f
8:42 3 6 mph 1010.9mb 77f 72f
8:36 5 6 mph 1010.8mb 77f 72f
8:30 6 7 mph 1010.6mb 77f 72f
8:24 6 8 mph 1010.6mb 77f 73f
8:18 7 8 mph 1010.6mb 77f 73f
8:12 7 8 mph 1010.4mb 77f 73f
8:06 7 8 mph 1010.4mb 76f 73f
8:00 7 8 mph 1010.4mb 76f 73f
7:54 6 8 mph 1010.3mb 76f 73f
7:48 7 8 mph 1010.1mb 76f 73f
7:42 6 8 mph 1010.1mb 76f 73f
7:36 7 9 mph 1010.2mb 76f 73f
7:30 8 9 mph 1010.2mb 76f 73f
7:24 8 9 mph 1010mb 76f 73f
7:18 8 9 mph 1010mb 76f 73f
7:12 6 10 mph 1009.9mb 76f 73f
7:06 9 10 mph 1009.9mb 76f 74f
7:00 9 11 mph 1009.8mb 76f 74f
6:54 10 14 mph 1009.7mb 76f 74f
6:48 11 14 mph 1009.6mb 76f 75f
6:42 13 14 mph 1009.5mb 76f 75f
6:36 10 11 mph 1009.7mb 76f 74f
6:30 8 13 mph 1009.7mb 76f 74f
6:24 8 10 mph 1009.7mb 76f 75f
6:18 8 11 mph 1009.6mb 76f 74f
6:12 11 13 mph 1009.5mb 76f 75f
6:06 10 14 mph 1009.5mb 76f 75f
6:00 13 14 mph 1009.6mb 76f 75f
5:54 13 15 mph 1009.6mb 76f 76f
5:48 13 14 mph 1009.7mb 76f 75f
5:42 10 11 mph 1009.8mb 76f 75f
5:36 9 11 mph 1009.8mb 76f 76f
5:30 8 10 mph 1009.9mb 76f 75f
5:24 9 10 mph 1009.9mb 76f 76f
5:18 9 10 mph 1009.7mb 76f 76f
5:12 7 8 mph 1009.6mb 76f 76f
5:06 6 9 mph 1009.6mb 77f 76f
5:00 7 11 mph 1009.5mb 77f 76f
4:54 9 11 mph 1009.5mb 77f 75f
4:48 11 14 mph 1009.4mb 77f 75f
4:42 10 14 mph 1009.4mb 77f 76f
4:36 11 15 mph 1009.4mb 77f 76f
4:30 10 15 mph 1009.4mb 77f 76f
4:24 10 14 mph 1009.4mb 77f 76f
4:18 13 15 mph 1009.3mb 77f 76f
4:12 11 13 mph 1009.4mb 77f 76f
4:06 8 11 mph 1009.5mb 77f 76f
4:00 11 14 mph 1009.4mb 77f 76f
3:54 10 13 mph 1009.4mb 77f 76f
3:48 10 14 mph 1009.5mb 77f 76f
3:42 9 14 mph 1009.5mb 77f 77f
3:36 8 10 mph 1009.6mb 77f 77f
3:30 9 13 mph 1009.5mb 77f 76f
3:24 8 10 mph 1009.6mb 77f 77f
3:18 10 13 mph 1009.5mb 77f 77f
3:12 8 10 mph 1009.5mb 77f 76f
3:06 8 13 mph 1009.6mb 77f 76f
3:00 9 11 mph 1009.6mb 77f 76f
2:54 10 13 mph 1009.5mb 77f 76f
2:48 10 14 mph 1009.5mb 77f 76f
2:42 13 14 mph 1009.5mb 77f 77f
2:36 7 13 mph 1009.6mb 77f 77f
2:30 9 13 mph 1009.5mb 77f 76f
2:24 13 17 mph 1009.5mb 77f 76f
2:18 13 15 mph 1009.4mb 77f 76f
2:12 13 17 mph 1009.3mb 77f 76f
2:06 14 16 mph 1009.4mb 77f 75f
2:00 15 17 mph 1009.4mb 77f 75f
1:54 16 18 mph 1009.4mb 77f 75f
1:48 13 15 mph 1009.4mb 77f 74f
1:42 13 16 mph 1009.6mb 77f 74f
1:36 15 20 mph 1009.5mb 77f 74f
1:30 14 17 mph 1009.4mb 77f 74f
1:24 14 16 mph 1009.6mb 77f 74f
1:18 13 17 mph 1009.6mb 77f 74f
1:12 15 18 mph 1009.6mb 77f 74f
1:06 11 18 mph 1009.7mb 77f 74f
1:00 15 16 mph 1009.6mb 77f 73f
12:54 13 16 mph 1009.7mb 77f 73f
12:48 14 17 mph 1009.7mb - 73f
12:42 14 17 mph 1009.7mb - 73f
12:36 14 20 mph 1009.8mb - 73f
12:30 17 21 mph 1009.6mb 77f 73f
12:24 17 21 mph 1009.6mb 77f 73f
12:18 18 20 mph 1009.5mb 77f 74f
12:12 13 16 mph 1009.6mb 77f 74f
12:06 16 18 mph 1009.4mb 77f 75f
12:00 14 17 mph 1009.3mb 77f 76f
11:54 14 15 mph 1009.3mb 77f 76f
11:48 10 15 mph 1009.4mb 77f 76f
11:42 13 14 mph 1009.4mb 77f 76f
11:36 11 15 mph 1009.3mb 77f 76f
11:30 13 15 mph 1009.2mb 77f 76f
11:24 13 15 mph 1009.2mb 77f 76f
11:18 11 14 mph 1009.2mb 77f 76f
11:12 9 14 mph 1009.2mb 77f 76f
11:06 11 14 mph 1009.1mb 77f 77f
11:00 11 13 mph 1009.1mb 77f 77f
10:54 11 14 mph 1009.2mb 77f 76f
10:48 8 13 mph 1009.2mb 77f 77f
10:42 10 11 mph 1009.2mb 77f 77f
10:36 13 16 mph 1009.2mb 77f 76f
10:30 10 16 mph 1009.2mb 77f 76f
10:24 10 13 mph 1009.2mb 77f 76f
10:18 10 13 mph 1009mb 77f 76f
10:12 10 14 mph 1009.1mb 77f 76f
10:06 14 16 mph 1009.1mb 77f 76f
10:00 14 16 mph 1009mb 77f 76f
9:54 15 17 mph 1008.9mb 77f 75f
9:48 15 17 mph 1008.8mb 76f 75f
9:42 15 16 mph 1008.7mb 76f 75f
9:36 14 15 mph 1008.7mb 76f 75f
9:30 11 14 mph 1008.7mb 76f 75f
9:24 11 15 mph 1008.8mb 76f 75f
9:18 11 15 mph 1008.8mb 76f 75f
9:12 14 18 mph 1008.7mb 76f 75f
9:06 14 16 mph 1008.6mb 76f 74f
9:00 14 17 mph 1008.5mb 77f 74f
8:54 15 16 mph 1008.5mb 77f 74f
8:48 13 15 mph 1008.4mb 77f 74f
8:42 14 15 mph 1008.2mb 77f 74f
8:36 13 16 mph 1008.3mb 77f 74f
8:30 15 17 mph 1008.2mb 77f 74f
8:24 17 20 mph 1008.1mb 76f 74f
8:18 13 15 mph 1008.2mb 76f 74f
8:12 10 14 mph 1008.3mb 76f 74f
8:06 14 15 mph 1008.2mb 76f 74f
8:00 14 17 mph 1008.2mb 76f 74f
7:54 11 15 mph 1008.1mb 76f 74f
7:48 10 13 mph 1008.1mb 76f 74f
7:42 9 11 mph 1008mb 76f 73f
7:36 10 13 mph 1008mb 76f 73f
7:30 10 11 mph 1008mb 76f 73f
7:24 10 13 mph 1008mb 76f 73f
7:18 11 16 mph 1008.1mb 76f 73f
7:12 14 16 mph 1008.1mb 76f 73f
7:06 9 11 mph 1008.2mb 76f 72f
7:00 8 10 mph 1008.2mb 76f 72f
6:54 8 10 mph 1008.2mb 76f 72f
6:48 9 10 mph 1008.2mb 76f 72f
6:42 9 11 mph 1008.1mb 76f 72f
6:36 9 11 mph 1008mb 76f 72f
6:30 9 10 mph 1007.9mb 76f 71f
6:24 7 9 mph 1008mb 76f 71f
6:18 7 8 mph 1008mb 76f 72f
6:12 6 7 mph 1007.8mb 76f 72f
6:06 6 7 mph 1007.8mb 76f 72f
6:00 7 8 mph 1007.8mb 76f 72f
5:54 6 8 mph 1007.9mb 76f 71f
5:48 7 8 mph 1007.8mb 76f 71f
5:42 6 7 mph 1007.8mb 76f 71f
5:36 7 9 mph 1007.8mb 76f 71f
5:30 8 9 mph 1007.8mb 76f 71f
5:24 8
mph
1007.9mb 76f 72f
5:18 8 10 mph 1007.9mb 76f 72f
5:12 9 11 mph 1007.8mb 76f 72f
5:06 8 10 mph 1007.9mb 76f 72f
5:00 8 9 mph 1007.9mb 76f 72f
4:54 6 8 mph 1007.8mb 76f 72f
4:48 7 11 mph 1007.9mb 76f 72f
4:42 10 11 mph 1008.2mb 76f 71f
4:36 8 9 mph 1008.1mb 76f 71f
4:30 6
mph
1007.8mb 76f 71f
4:24 6 7 mph 1007.7mb 76f 71f
4:18 5 6 mph 1007.7mb 76f 71f
4:12 3 5 mph 1007.5mb 76f 72f
4:06 3 5 mph 1007.6mb 76f 72f
4:00 1 2 mph 1007.5mb 76f 72f
3:54 1 2 mph 1007.5mb 76f 71f
3:48 2 3 mph 1007.5mb 76f 71f
3:42 3
mph
1007.6mb 76f 71f
3:36 2 3 mph 1007.6mb 77f 71f
3:30 3 5 mph 1007.6mb 77f 71f
3:24 2 3 mph 1007.4mb 77f 71f
3:18 2 3 mph 1007.5mb 77f 71f
3:12 2 3 mph 1007.6mb 77f 71f
3:06 3
mph
1007.6mb 77f 71f
3:00 3 7 mph 1007.5mb 77f 72f
2:54 6 7 mph 1007.5mb 77f 72f
2:48 5 6 mph 1007.4mb 77f 72f
2:42 3 5 mph 1007.4mb 77f 72f
2:36 2 5 mph 1007.3mb 77f 72f
2:30 3 5 mph 1007.4mb 77f 72f
2:24 2 7 mph 1007.2mb 77f 72f
2:18 7
mph
1007.5mb 77f 72f
2:12  -  2 mph 1007.1mb 77f 72f
2:06 2 5 mph 1007.3mb 77f 72f
2:00 5
mph
1007.6mb 77f 72f
1:54 5 6 mph 1007.7mb 77f 72f
1:48 5 6 mph 1007.8mb 77f 72f
1:42 3 5 mph 1007.9mb 77f 73f
1:36 5 6 mph 1008mb 77f 72f
1:30 1 5 mph 1007.8mb 77f 72f
1:24 6 7 mph 1007.8mb 77f 72f
1:18 6 9 mph 1008.2mb 77f 72f
1:12 9 10 mph 1008.5mb 77f 72f
1:06 9 10 mph 1008.3mb 77f 73f
1:00 9 13 mph 1008mb 77f 73f
12:54 11 13 mph 1007.3mb 77f 73f
12:48 13 15 mph 1007mb 77f 73f
12:42 13 17 mph 1007.3mb 77f 73f
12:36 16 17 mph 1007.8mb 77f 73f
12:30 14 16 mph 1007.8mb 77f 74f
12:24 10 13 mph 1007.9mb 77f 74f
12:18 11 14 mph 1008.1mb 77f -
12:12 11 14 mph 1008mb 77f -
12:06 14
mph
1007.8mb 77f -
12:00 13 14 mph 1008mb 77f 74f
mié 07/23 11:54 11 13 mph 1008.6mb 77f 75f
11:48 11 13 mph 1008.7mb 77f 74f
11:42 11
mph
1008.9mb 77f 75f
11:36 8 9 mph 1008.9mb 77f 75f
11:30 6 8 mph 1009.2mb 77f 75f
11:24 7 13 mph 1009.5mb 77f 76f
11:18 13 16 mph 1009.8mb 77f 75f
11:12 10 16 mph 1009.7mb 77f 75f
11:06 13 14 mph 1009.8mb 77f 75f
11:00 10 13 mph 1009.8mb 77f 74f
10:54 11 13 mph 1009.6mb 77f 74f
10:48 9 11 mph 1010.2mb 77f 74f
10:42 10 15 mph 1010.1mb 77f 74f
10:36 11 15 mph 1010.3mb 77f 74f
10:30 15 16 mph 1009.6mb 77f 74f
10:24 14 17 mph 1009.6mb 77f 74f
10:18 14 16 mph 1009.6mb 77f 74f
10:12 14 16 mph 1009.6mb 77f 74f
10:06 14 16 mph 1009.7mb 77f 74f
10:00 15 16 mph 1009.7mb 77f 74f
9:54 14 16 mph 1009.8mb 77f 74f
9:48 15 16 mph 1009.9mb 77f 74f
9:42 15 17 mph 1009.9mb 77f 74f
9:36 14 16 mph 1010mb 77f 75f
9:30 13 17 mph 1010.2mb 77f 75f
9:24 14 16 mph 1010.1mb 77f 75f
9:18 15 18 mph 1009.9mb 77f 75f
9:12 15 17 mph 1009.9mb 77f 75f
9:06 15 17 mph 1010mb 77f 75f
9:00 15 18 mph 1010mb 77f 75f
8:54 16 20 mph 1009.6mb 77f 75f
8:48 15 17 mph 1009.6mb 77f 75f
8:42 14 16 mph 1009.3mb 77f 75f
8:36 15 16 mph 1009.4mb 77f 75f
8:30 14 18 mph 1009.2mb 77f 75f
8:24 15 18 mph 1009.1mb 77f 75f
8:18 15 17 mph 1009.2mb 77f 75f
8:12 15 18 mph 1009.1mb 77f 76f
8:06 17 20 mph 1009mb 77f 76f
8:00 18 21 mph 1009.1mb 77f 76f
7:54 18 20 mph 1008.9mb 77f 76f
7:48 16 20 mph 1009.1mb 77f 76f
7:42 16 21 mph 1009.2mb 77f 76f
7:36 17 21 mph 1009.1mb 77f 76f
7:30 17 21 mph 1009.1mb 77f 76f
7:24 17 21 mph 1009.1mb 77f 76f
7:18 18 23 mph 1009.2mb 77f 76f
7:12 22 23 mph 1008.9mb 77f 76f
7:06 22 24 mph 1008.8mb 77f 76f
7:00 22 24 mph 1008.8mb 77f 76f
6:54 20 24 mph 1008.8mb 77f 77f
6:48 22 26 mph 1008.9mb 77f 77f
6:42 22 25 mph 1009mb 77f 77f
6:36 23 25 mph 1008.8mb 77f 78f
6:30 23 26 mph 1008.8mb 77f 78f
6:24 25 29 mph 1008.8mb 77f 78f
6:18 23 28 mph 1008.6mb 77f 77f
6:12 21 28 mph 1008.5mb 77f 77f
6:06 23 26 mph 1008.5mb 77f 77f
6:00 23 25 mph 1008.4mb 77f 77f
5:54 23 25 mph 1008.5mb 77f 77f
5:48 22 25 mph 1008.5mb 77f 77f
5:42 23 26 mph 1008.5mb 77f 78f
5:36 23 26 mph 1008.6mb 77f 78f
5:30 24 26 mph 1008.6mb 77f 78f
5:24 24 28 mph 1008.8mb 77f 78f
5:18 24 28 mph 1008.8mb 77f 78f
5:12 24 28 mph 1008.8mb 77f 78f
5:06 25 28 mph 1008.9mb 77f 78f
5:00 23 29 mph 1009mb 77f 78f
4:54 24 26 mph 1009.1mb 77f 78f
4:48 24 26 mph 1009mb 77f 78f
4:42 23 25 mph 1009.1mb 77f 78f
4:36 25 28 mph 1009mb 77f 78f
4:30 24 26 mph 1009.2mb 77f 78f
4:24 23 28 mph 1009.2mb 77f 78f
4:18 24 28 mph 1009.3mb 77f 78f
4:12 23 26 mph 1009.4mb 77f 78f
4:06 26 30 mph 1009.4mb 77f 78f
4:00 26 30 mph 1009.4mb 77f 78f
3:54 26 29 mph 1009.4mb 77f 78f
3:48 25 29 mph 1009.5mb 77f 78f
3:42 24 29 mph 1009.6mb 77f 78f
3:36 26 30 mph 1009.7mb 77f 78f
3:30 26 30 mph 1009.7mb 77f 78f
3:24 25 28 mph 1009.7mb 77f 78f
3:18 24 28 mph 1009.8mb 77f 78f
3:12 24 28 mph 1010mb 77f 78f
3:06 25 29 mph 1010mb 77f 78f
3:00 26 30 mph 1010mb 77f 78f
2:54 28 30 mph 1010.1mb 77f 78f
2:48 26 28 mph 1010.1mb 77f 78f
2:42 26 29 mph 1010mb 76f 78f
2:36 28 30 mph 1010.1mb 76f 77f
2:30 28 29 mph 1010.1mb 76f 77f
2:24 26 30 mph 1010.2mb 76f 77f
2:18 25 29 mph 1010.4mb 76f 78f
2:12 25 28 mph 1010.3mb 76f 78f
2:06 26 28 mph 1010.3mb 76f 77f
2:00 25 29 mph 1010.4mb 76f 78f
1:54 26 29 mph 1010.4mb 76f 78f
1:48 24 25 mph 1010.6mb 76f 78f
1:42 23 25 mph 1010.7mb 76f 78f
1:36 23 25 mph 1010.9mb 76f 78f
1:30 23 25 mph 1011mb 76f 78f
1:24 20 23 mph 1011.2mb 76f 78f
1:18 22 25 mph 1011.1mb 76f 78f
1:12 23 24 mph 1011mb 76f 78f
1:06 22 23 mph 1011.1mb 76f 78f
1:00 22 23 mph 1011.1mb 76f 78f
12:54 22 24 mph 1011.2mb 76f 78f
12:48 23 24 mph 1011.1mb 76f 78f
12:42 22 23 mph 1011.3mb 76f 78f
12:36 21 23 mph 1011.3mb 76f 78f
12:30 21 24 mph 1011.4mb 76f 78f
12:24 21 22 mph 1011.5mb 76f 78f
12:18 21 22 mph 1011.6mb 76f 78f
12:12 20 21 mph 1011.7mb 76f 78f
12:06 20 21 mph 1011.8mb 75f 77f
12:00 17 20 mph 1011.9mb 75f 77f
11:54 18 20 mph 1011.9mb 75f 76f
11:48 15 18 mph 1012.1mb 75f 77f
11:42 16 17 mph 1012.2mb 75f 77f
11:36 16 18 mph 1012.3mb 75f 76f
11:30 17 18 mph 1012.4mb 75f 76f
11:24 17 21 mph 1012.5mb 75f 76f
11:18 20 21 mph 1012.6mb 75f 76f
11:12 18 21 mph 1012.7mb 75f 76f
11:06 20 21 mph 1012.7mb 75f 76f
11:00 20 21 mph 1012.9mb 75f 76f
10:54 20 21 mph 1012.9mb 75f 76f
10:48 17 18 mph 1012.9mb 75f 76f
10:42 18 20 mph 1012.9mb 75f 75f
10:36 16 18 mph 1013.1mb 75f 75f
10:30 14 17 mph 1013.2mb 75f 76f
10:24 15 16 mph 1013.3mb 75f 76f
10:18 16 17 mph 1013.3mb 75f 75f
10:12 15 18 mph 1013.5mb 75f 75f
10:06 16 18 mph 1013.4mb 75f 75f
10:00 16 18 mph 1013.5mb 75f 75f
9:54 16 17 mph 1013.6mb 75f 75f
9:48 14 16 mph 1013.8mb 75f 75f
9:42 11 14 mph 1013.9mb 75f 75f
9:36 14 15 mph 1013.7mb 75f 74f
9:30 13 17 mph 1013.8mb 75f 74f
9:24 16 18 mph 1013.6mb 75f 74f
9:18 16 17 mph 1013.7mb 75f 74f
9:12 15 17 mph 1013.9mb 75f 74f
9:06 14 16 mph 1014.1mb 75f 74f
9:00 14 15 mph 1014.2mb 75f 74f
8:54 14 16 mph 1014.3mb 75f 74f
8:48 13 15 mph 1014.2mb 75f 74f
8:42 14 15 mph 1014.3mb 75f 73f
8:36 14
mph
1014.3mb 75f 73f
8:30 13 16 mph 1014.4mb 75f 73f
8:24 15 17 mph 1014.4mb 75f 73f
8:18 16 17 mph 1014.3mb 75f 73f
8:12 15 17 mph 1014.5mb 75f 73f
8:06 15 17 mph 1014.5mb 75f 72f
8:00 14 16 mph 1014.5mb 75f 72f
7:54 14 15 mph 1014.6mb 75f 72f
7:48 11 13 mph 1014.6mb 75f 72f
7:42 10 13 mph 1014.6mb 75f 72f
7:36 10 15 mph 1014.8mb 76f 72f
7:30 13 16 mph 1014.8mb 76f 71f
7:24 14 17 mph 1014.7mb 76f 71f
7:18 14 17 mph 1014.5mb 76f 71f
7:12 15 18 mph 1014.4mb 76f 71f
7:06 17 18 mph 1014.3mb 76f 71f
7:00 15 18 mph 1014.4mb 76f 71f
6:54 16 17 mph 1014.4mb 76f 71f
6:48 16 17 mph 1014.4mb 76f 71f
6:42 15 16 mph 1014.4mb 76f 71f
6:36 14 16 mph 1014.4mb 76f 71f
6:30 15 16 mph 1014.3mb 76f 71f
6:24 14 16 mph 1014.4mb 76f 71f
6:18 14 15 mph 1014.5mb 76f 71f
6:12 14 16 mph 1014.5mb 76f 71f
6:06 13 14 mph 1014.5mb 76f 71f
6:00 11 13 mph 1014.5mb 76f 71f
5:54 11 13 mph 1014.5mb 76f 71f
5:48 11 14 mph 1014.5mb 76f 71f
5:42 11 13 mph 1014.5mb 76f 71f
5:36 10 11 mph 1014.5mb 76f 71f
5:30 9 10 mph 1014.5mb 76f 71f
5:24 10 13 mph 1014.6mb 76f 71f
5:18 11 13 mph 1014.7mb 76f 71f
5:12 11 13 mph 1014.6mb 76f 71f
5:06 13 14 mph 1014.5mb 76f 72f
5:00 10 13 mph 1014.6mb 76f 71f
4:54 10 11 mph 1014.8mb 76f 71f
4:48 9 10 mph 1014.9mb 76f 72f
4:42 9 11 mph 1014.8mb 75f 72f
4:36 10 11 mph 1014.8mb 75f 72f
4:30 9 10 mph 1014.9mb 75f 71f
4:24 9 10 mph 1014.8mb 75f 71f
4:18 9
mph
1014.9mb 75f 71f
4:12 9 10 mph 1015mb 75f 71f
4:06 9 13 mph 1015.1mb 75f 71f
4:00 11 13 mph 1015mb 75f 71f
3:54 10 13 mph 1015mb 75f 72f
3:48 10 11 mph 1014.9mb 75f 72f
3:42 10 11 mph 1014.8mb 75f 72f
3:36 10 11 mph 1014.9mb 75f 72f
3:30 10
mph
1015mb 75f 72f
3:24 8 9 mph 1015.1mb 75f 72f
3:18 9 10 mph 1015.1mb 75f 72f
3:12 10
mph
1015.2mb 75f 72f
3:06 9 10 mph 1015.2mb 76f 72f
3:00 8 10 mph 1015.2mb 76f 72f
2:54 8 9 mph 1015.3mb 76f 72f
2:48 8 9 mph 1015.4mb 76f 72f
2:42 7 9 mph 1015.5mb 76f 72f
2:36 7 8 mph 1015.6mb 76f 72f
2:30 7 9 mph 1015.7mb 76f 72f
2:24 8 10 mph 1015.8mb 76f 72f
2:18 8 10 mph 1015.8mb 76f 72f
2:12 8 10 mph 1015.8mb 76f 72f
2:06 10 11 mph 1015.7mb 76f 72f
2:00 10 11 mph 1015.8mb 76f 72f
1:54 10 11 mph 1015.8mb 76f 72f
1:48 9 13 mph 1015.9mb 76f 72f
1:42 9 11 mph 1016mb 76f 73f
1:36 10 13 mph 1016.1mb 76f 73f
1:30 10 13 mph 1016.2mb 76f 73f
1:24 11 14 mph 1016.2mb 76f 72f
1:18 10 14 mph 1016.2mb 76f 73f
1:12 10 14 mph 1016.2mb 76f 72f
1:06 13 14 mph 1016.2mb 76f 72f
1:00 11 13 mph 1016.2mb 76f 72f
12:54 13 14 mph 1016.2mb 76f 73f
12:48 11 15 mph 1016.2mb 76f 73f
12:42 11 14 mph 1016.2mb 76f 73f
12:36 9 11 mph 1016.3mb 76f 73f
12:30 10 13 mph 1016.4mb 76f 73f
12:24 9 10 mph 1016.4mb 76f 73f
12:18 8 10 mph 1016.6mb 76f 73f
12:12 9 11 mph 1016.7mb 76f 73f
12:06 9 10 mph 1016.7mb 76f 73f
12:00 9 11 mph 1016.7mb 76f 73f
mar 07/22 11:54 10 13 mph 1016.8mb 76f 73f
11:48 9 13 mph 1016.8mb 76f 73f
11:42 9 13 mph 1016.8mb 76f 73f
11:36 9 11 mph 1016.9mb 76f 74f
11:30 8 10 mph 1017mb 76f 74f
11:24 8 10 mph 1017mb 76f 74f
11:18 9 13 mph 1017mb 76f 74f
11:12 8 9 mph 1017mb 76f 74f
11:06 8 10 mph 1017mb 76f 74f
11:00 9 13 mph 1017mb 76f 74f
10:54 10 14 mph 1016.9mb 76f 74f
10:48 10 13 mph 1017mb 76f 74f
10:42 11 14 mph 1016.9mb 76f 74f
10:36 11 14 mph 1017mb 76f 74f
10:30 11 14 mph 1017.1mb 76f 74f
10:24 11 15 mph 1017.2mb 76f 74f
10:18 13 15 mph 1017.3mb 76f 74f
10:12 13 15 mph 1017.3mb 76f 74f
10:06 13 16 mph 1017.3mb 76f 74f
10:00 13 16 mph 1017.2mb 76f 74f
9:54 13 15 mph 1017.3mb 76f 74f
9:48 13 18 mph 1017.4mb 76f 74f
9:42 14 16 mph 1017.4mb 76f 74f
9:36 15 18 mph 1017.4mb 76f 74f
9:30 14 18 mph 1017.4mb 76f 74f
9:24 16 20 mph 1017.3mb 76f 75f
9:18 17 20 mph 1017.4mb 76f 75f
9:12 16 20 mph 1017.5mb 76f 75f
9:06 17 21 mph 1017.4mb 76f 75f
9:00 18 22 mph 1017.5mb 76f 75f
8:54 18 22 mph 1017.5mb 76f 75f
8:48 17 21 mph 1017.5mb 75f 75f
8:42 18 21 mph 1017.4mb 75f 75f
8:36 21 23 mph 1017.4mb 75f 76f
8:30 20 22 mph 1017.3mb 75f 76f
8:24 17 21 mph 1017.1mb 75f 76f
8:18 17 21 mph 1017.2mb 75f 76f
8:12 18 20 mph 1017.2mb 75f 76f
8:06 16 17 mph 1017.2mb 75f 77f
8:00 15 16 mph 1017.2mb 75f 77f
7:54 15 18 mph 1017.4mb 75f 77f
7:48 15 17 mph 1017.3mb 75f 78f
7:42 14 17 mph 1017.2mb 75f 78f
7:36 15 16 mph 1017.3mb 75f 78f
7:30 13 16 mph 1017.3mb 76f 79f
7:24 15 21 mph 1017.3mb 76f 79f
7:18 17 21 mph 1017.2mb 76f 79f
7:12 15 16 mph 1017mb 76f 78f
7:06 15 22 mph 1017mb 76f 79f
7:00 20 23 mph 1017.3mb 76f 80f
6:54 17 18 mph 1017.1mb 76f 80f
6:48 17 20 mph 1017mb 76f 79f
6:42 16 17 mph 1017mb 76f 79f
6:36 15 20 mph 1017mb 76f 80f
6:30 16 20 mph 1017mb 76f 80f
6:24 15 18 mph 1017.1mb 76f 80f
6:18 15 17 mph 1017.1mb 76f 81f
6:12 15 18 mph 1017.2mb 76f 81f
6:06 16 18 mph 1017.2mb 76f 81f
6:00 15 17 mph 1017.2mb 76f 80f
5:54 14 22 mph 1017.3mb 76f 81f
5:48 17 21 mph 1017.3mb 76f 81f
5:42 15 20 mph 1017.3mb 76f 80f
5:36 15 20 mph 1017.3mb 76f 80f
5:30 18 22 mph 1017.3mb 76f 81f
5:24 18 21 mph 1017.3mb 76f 81f
5:18 20 22 mph 1017.2mb 76f 81f
5:12 18 22 mph 1017.3mb 76f 82f
5:06 17 21 mph 1017.4mb 76f 82f
5:00 16 22 mph 1017.4mb 76f 82f
4:54 18 20 mph 1017.3mb 76f 81f
4:48 17 20 mph 1017.3mb 76f 80f
4:42 17 21 mph 1017.3mb 76f 79f
4:36 21 22 mph 1017.2mb 76f 79f
4:30 22 23 mph 1017.3mb 76f 79f
4:24 21 23 mph 1017.3mb 76f 79f
4:18 22 23 mph 1017.3mb 76f 79f
4:12 22 24 mph 1017.3mb 75f 78f
4:06 23 25 mph 1017.3mb 75f 79f
4:00 25
mph
1017.4mb 75f 79f
3:54 22 23 mph 1017.3mb 74f 79f
3:48 18 21 mph 1017.4mb 74f 79f
3:42 18 23 mph 1017.4mb 74f 78f
3:36 18 20 mph 1017.6mb 74f 78f
3:30 17 18 mph 1017.7mb 74f 77f
3:24 17 20 mph 1017.7mb 74f 77f
3:18 17 18 mph 1017.8mb 74f 78f
3:12 17 18 mph 1017.9mb 74f 77f
3:06 15 18 mph 1018mb 74f 78f
3:00 17 18 mph 1018.2mb 75f 78f
2:54 14 16 mph 1018.3mb 75f 78f
2:48 16 17 mph 1018.3mb 75f 78f
2:42 16
mph
1018.4mb 75f 77f
2:36 15 16 mph 1018.4mb 76f 78f
2:30 16 17 mph 1018.4mb 76f 78f
2:18 15 16 mph 1018.4mb 76f 78f
2:12 15 17 mph 1018.4mb 76f 78f
2:06 17 20 mph 1018.5mb 76f 78f
2:00 18 20 mph 1018.4mb 76f 78f
1:54 16 17 mph 1018.6mb 76f 78f
1:48 15 16 mph 1018.7mb 76f 78f
1:42 16
mph
1018.8mb 76f 78f
1:36 14
mph
1018.8mb 76f 78f
1:30 14 15 mph 1018.9mb 76f 78f
1:24 15
mph
1018.9mb 76f 77f
1:18 15 16 mph 1018.9mb 76f 77f
1:12 15
mph
1018.9mb 76f 77f
1:06 14
mph
1019mb 76f 77f
1:00 13 14 mph 1019.2mb 76f 77f
12:54 13
mph
1019.3mb 76f 77f
12:48 13
mph
1019.4mb 76f 77f
12:42 13
mph
1019.4mb 75f 77f
12:36 11
mph
1019.5mb 75f 77f
12:30 11 13 mph 1019.5mb 75f 77f
12:24 11 13 mph 1019.5mb 75f 76f
12:18 11
mph
1019.6mb 75f 76f
12:12 11
mph
1019.6mb 75f 76f
12:06 11
mph
1019.6mb 75f 76f
12:00 10 11 mph 1019.5mb 75f 76f
11:54 10 11 mph 1019.7mb 75f 76f
11:48 11
mph
1019.7mb 75f 76f
11:42 10 11 mph 1019.8mb 75f 75f
11:36 10 11 mph 1019.8mb 75f 75f
11:30 10 11 mph 1019.9mb 75f 75f
11:24 10
mph
1020mb 75f 75f
11:18 9 10 mph 1020mb 75f 74f
11:12 9 11 mph 1019.9mb 75f 75f
11:06 10 11 mph 1019.8mb 75f 75f
11:00 10 11 mph 1019.7mb 75f 75f
10:54 10 11 mph 1019.7mb 75f 74f
10:48 11
mph
1019.7mb 75f 74f
10:42 11
mph
1019.8mb 75f 74f
10:36 10 11 mph 1019.8mb 75f 74f
10:30 10
mph
1019.9mb 75f 74f
10:24 9 11 mph 1020mb 75f 73f
10:18 9 10 mph 1019.9mb 75f 73f
10:12 9 10 mph 1019.9mb 75f 73f
10:06 9 10 mph 1020mb 75f 73f
10:00 9 10 mph 1020mb 75f 73f
9:54 9 10 mph 1019.9mb 75f 73f
9:48 9 10 mph 1019.9mb 75f 72f
9:42 8 9 mph 1020mb 75f 72f
9:36 8 9 mph 1020.1mb 75f 72f
9:30 8
mph
1020.1mb 75f 72f
9:24 8
mph
1020.2mb 75f 72f
9:18 8
mph
1020.3mb 75f 71f
9:12 7 8 mph 1020.4mb 75f 71f
9:06 8
mph
1020.4mb 75f 71f
9:00 8 9 mph 1020.5mb 75f 71f
8:54 8 9 mph 1020.6mb 75f 71f
8:48 8
mph
1020.7mb 75f 71f
8:42 7 8 mph 1020.7mb 75f 70f
8:36 7
mph
1020.8mb 75f 70f
8:30 5 6 mph 1020.8mb 74f 70f
8:24 5 6 mph 1020.9mb 74f 70f
8:18 5 6 mph 1020.9mb 74f 71f
8:12 5 6 mph 1021mb 74f 71f
8:06 5 7 mph 1021mb 74f 71f
8:00 5 7 mph 1021mb 74f 70f
7:54 5 7 mph 1021mb 74f 70f
7:48 5 6 mph 1021mb 74f 70f
7:42 5 6 mph 1020.9mb 74f 69f
7:36 5 6 mph 1020.9mb 74f 69f
7:30 3 6 mph 1020.9mb 74f 69f
7:24 5 7 mph 1020.9mb 74f 69f
7:18 5 6 mph 1020.9mb 74f 69f
7:12 5 6 mph 1020.9mb 74f 69f
7:06 6 7 mph 1020.9mb 74f 69f
7:00 3 5 mph 1020.9mb 74f 69f
6:54 3 5 mph 1020.8mb 74f 69f
6:48 3 5 mph 1020.8mb 74f 68f
6:42 3 5 mph 1020.8mb 74f 69f
6:36 5 6 mph 1020.9mb 74f 69f
6:30 2 5 mph 1020.9mb 74f 69f
6:24 3 6 mph 1020.9mb 74f 69f
6:18 5
mph
1020.9mb 74f 69f
6:12 3 5 mph 1020.8mb 73f 69f
6:06 3 5 mph 1020.9mb 73f 69f
6:00 5 6 mph 1020.9mb 73f 68f
5:54 5 6 mph 1021mb 73f 68f
5:48 5 6 mph 1020.9mb 73f 68f
5:42 3 5 mph 1020.9mb 73f 68f
5:36 5 6 mph 1020.9mb 73f 68f
5:30 3 5 mph 1020.9mb 73f 68f
5:24 3 6 mph 1020.9mb 73f 68f
5:18 3 5 mph 1020.9mb 73f 68f
5:12 5 6 mph 1020.8mb 73f 68f
5:06 5 6 mph 1020.8mb 73f 67f
5:00 6 7 mph 1020.8mb 73f 67f
4:54 5 7 mph 1020.8mb 73f 67f
4:48 6 7 mph 1020.8mb 73f 67f
4:42 6 8 mph 1020.7mb 73f 68f
4:36 7 8 mph 1020.7mb 73f 68f
4:30 6 7 mph 1020.6mb 73f 67f
4:24 6 7 mph 1020.6mb 73f 68f
4:18 5 6 mph 1020.7mb 73f 68f
4:12 5 7 mph 1020.7mb 73f 67f
4:06 5 6 mph 1020.7mb 73f 67f
4:00 5 6 mph 1020.8mb 73f 67f
3:54 3 5 mph 1020.7mb 73f 67f
3:48 3 5 mph 1020.8mb 73f 67f
3:42 3 6 mph 1020.7mb 73f 67f
3:36 6 9 mph 1020.8mb 73f 67f
3:30 8 9 mph 1020.8mb 73f 66f
3:24 8 10 mph 1020.7mb 73f 67f
3:18 6 7 mph 1020.7mb 74f 67f
3:12 6 7 mph 1020.7mb 74f 67f
3:06 5 6 mph 1020.7mb 74f 67f
3:00 5 6 mph 1020.7mb 74f 67f
2:54 5 7 mph 1020.7mb 74f 67f
2:48 3 5 mph 1020.7mb 74f 67f
2:42 3 5 mph 1020.7mb 74f 67f
2:36 3 5 mph 1020.8mb 74f 67f
2:30 5 6 mph 1020.7mb 74f 67f
2:24 3 6 mph 1020.7mb 74f 67f
2:18 3 6 mph 1020.7mb 74f 68f
2:12 3 6 mph 1020.8mb 74f 68f
2:06 5 6 mph 1020.8mb 74f 68f
2:00 5 7 mph 1020.8mb 74f 69f
1:54 6 8 mph 1020.8mb 75f 69f
1:48 6 7 mph 1020.8mb 75f 69f
1:42 6 7 mph 1020.9mb 75f 69f
1:36 6 8 mph 1020.9mb 75f 68f
1:30 7 8 mph 1020.9mb 75f 68f
1:24 8 10 mph 1021mb 75f 69f
1:18 8 9 mph 1021.1mb 75f 68f
1:12 7 9 mph 1021.1mb 75f 68f
1:06 7 9 mph 1021.1mb 75f 68f
1:00 7 10 mph 1021.1mb 75f 68f
12:54 9 10 mph 1021.1mb 75f 67f
12:48 8 9 mph 1021.1mb 75f 68f
12:42 7 8 mph 1021.1mb 75f 68f
12:36 7 8 mph 1021.2mb 75f 68f
12:30 7 9 mph 1021.2mb 75f 68f
12:24 7 8 mph 1021.2mb 76f 69f
12:18 6
mph
1021.2mb 76f 69f
12:12 5 7 mph 1021.2mb 76f 69f
12:06 6 7 mph 1021.3mb 76f 69f
12:00 6 7 mph 1021.3mb 76f 69f
lun 07/21 11:54 6 7 mph 1021.4mb 76f 69f
11:48 6 7 mph 1021.4mb 76f 69f
11:42 6 7 mph 1021.4mb 76f 69f
11:36 6 8 mph 1021.4mb 76f 69f
11:30 6 8 mph 1021.5mb 76f 70f
11:24 7
mph
1021.5mb 76f 70f
11:18 6 7 mph 1021.5mb 76f 70f
11:12 6 7 mph 1021.4mb 76f 70f
11:06 6 7 mph 1021.5mb 76f 70f
11:00 7 8 mph 1021.6mb 76f 70f
10:54 7 8 mph 1021.5mb 76f 70f
10:48 7 8 mph 1021.5mb 76f 70f
10:42 7 8 mph 1021.5mb 77f 70f
10:36 8 9 mph 1021.5mb 77f 70f
10:30 7 9 mph 1021.5mb 77f 70f
10:24 7 9 mph 1021.6mb 77f 70f
10:18 8 9 mph 1021.6mb 77f 70f
10:12 9 10 mph 1021.6mb 77f 70f
10:06 7 9 mph 1021.6mb 77f 70f
10:00 8 9 mph 1021.6mb 77f 70f
9:54 8 9 mph 1021.6mb 77f 70f
9:48 8 10 mph 1021.6mb 77f 71f
9:42 9 11 mph 1021.6mb 77f 71f
9:36 10 11 mph 1021.6mb 77f 71f
9:30 10 11 mph 1021.6mb 77f 71f
9:24 9 11 mph 1021.6mb 77f 71f
9:18 9 13 mph 1021.6mb 77f 71f
9:12 11 14 mph 1021.5mb 77f 71f
9:06 11 14 mph 1021.4mb 77f 72f
9:00 11 14 mph 1021.3mb 77f 71f
8:54 11 13 mph 1021.3mb 77f 71f
8:48 11 14 mph 1021.2mb 77f 72f
8:42 14 15 mph 1021.2mb 77f 72f
8:36 13 14 mph 1021.1mb 77f 72f
8:30 13 14 mph 1021.1mb 77f 72f
8:24 14 15 mph 1021.1mb 76f 72f
8:18 14 16 mph 1021mb 76f 72f
8:12 14 15 mph 1021mb 76f 73f
8:06 14 17 mph 1021mb 76f 73f
8:00 15 17 mph 1020.9mb 76f 73f
7:54 16 17 mph 1020.9mb 76f 73f
7:48 14 16 mph 1020.8mb 76f 73f
7:42 15 17 mph 1020.7mb 76f 73f
7:36 15 16 mph 1020.6mb 76f 73f
7:30 14 15 mph 1020.7mb 76f 73f
7:24 14 15 mph 1020.7mb 76f 74f
7:18 14
mph
1020.6mb 75f 74f
7:12 13 15 mph 1020.6mb 75f 74f
7:06 11 15 mph 1020.6mb 75f 75f
7:00 9 11 mph 1020.7mb 75f 76f
6:54 6
mph
1020.7mb 75f 80f
6:48 5 7 mph 1020.7mb 75f 82f
6:42 7
mph
1020.6mb 75f 81f